Wyatt, Louisiana
Current Conditions -  °F | °C
As of 8:55 AM on Friday 19 Dec 2014 (Local Time) from KRSN Reporting Station
Drizzle Drizzle  
Wind Chill: 46°   Ceiling: 2200
Heat Index: 46°   Visibility: 7mi
Dew Point: 46°   Wind: 3mph
Humidity: 100%   Direction: 50°NE
Pressure: 30.23"   Gusts: NA
Location:  32.2275°N, 92.6417°W
Report Text: KRSN 191455Z AUTO 05003KT 7SM DZ SCT009 OVC022 08/08 A3023 RMK AO2 T00800080
Loading
Personal Weather Stations






























Interactive Weather Map New forecast layout! Learn more

10-Day Weather Forecast

Advertisements
Track Severe Weather on mobile